sensor_id;sensor_type;location;lat;lon;timestamp;pressure;altitude;pressure_sealevel;temperature;humidity
16793;BME280;8513;42.662;23.350;2023-07-30T00:00:39;94764.78;;;23.21;46.75
16793;BME280;8513;42.662;23.350;2023-07-30T00:03:05;94760.81;;;23.23;46.72
16793;BME280;8513;42.662;23.350;2023-07-30T00:05:30;94757.56;;;23.21;46.26
16793;BME280;8513;42.662;23.350;2023-07-30T00:07:56;94765.00;;;23.19;46.57
16793;BME280;8513;42.662;23.350;2023-07-30T00:10:21;94756.47;;;23.34;46.24
16793;BME280;8513;42.662;23.350;2023-07-30T00:12:47;94760.66;;;23.42;45.98
16793;BME280;8513;42.662;23.350;2023-07-30T00:15:12;94761.22;;;23.44;46.12
16793;BME280;8513;42.662;23.350;2023-07-30T00:17:39;94758.81;;;23.30;46.45
16793;BME280;8513;42.662;23.350;2023-07-30T00:20:06;94759.28;;;23.27;46.24
16793;BME280;8513;42.662;23.350;2023-07-30T00:22:32;94760.72;;;23.18;46.80
16793;BME280;8513;42.662;23.350;2023-07-30T00:24:57;94762.66;;;23.23;46.79
16793;BME280;8513;42.662;23.350;2023-07-30T00:27:22;94761.97;;;23.27;46.64
16793;BME280;8513;42.662;23.350;2023-07-30T00:29:48;94752.16;;;23.33;46.88
16793;BME280;8513;42.662;23.350;2023-07-30T00:32:13;94750.53;;;23.32;46.71
16793;BME280;8513;42.662;23.350;2023-07-30T00:34:41;94747.94;;;23.37;46.50
16793;BME280;8513;42.662;23.350;2023-07-30T00:37:06;94746.94;;;23.26;46.51
16793;BME280;8513;42.662;23.350;2023-07-30T00:39:32;94744.00;;;23.28;46.39
16793;BME280;8513;42.662;23.350;2023-07-30T00:41:57;94742.97;;;23.17;46.57
16793;BME280;8513;42.662;23.350;2023-07-30T00:44:22;94749.03;;;23.24;46.50
16793;BME280;8513;42.662;23.350;2023-07-30T00:46:48;94750.00;;;23.18;46.56
16793;BME280;8513;42.662;23.350;2023-07-30T00:49:14;94741.25;;;23.11;46.71
16793;BME280;8513;42.662;23.350;2023-07-30T00:51:40;94748.16;;;23.07;46.77
16793;BME280;8513;42.662;23.350;2023-07-30T00:54:06;94750.72;;;23.02;46.74
16793;BME280;8513;42.662;23.350;2023-07-30T00:56:32;94744.44;;;22.96;46.81
16793;BME280;8513;42.662;23.350;2023-07-30T00:58:57;94743.22;;;23.04;46.66
16793;BME280;8513;42.662;23.350;2023-07-30T01:01:23;94742.09;;;23.00;46.81
16793;BME280;8513;42.662;23.350;2023-07-30T01:03:50;94746.38;;;23.01;46.71
16793;BME280;8513;42.662;23.350;2023-07-30T01:06:15;94743.00;;;22.94;46.28
16793;BME280;8513;42.662;23.350;2023-07-30T01:08:41;94746.66;;;22.99;46.08
16793;BME280;8513;42.662;23.350;2023-07-30T01:11:07;94749.28;;;22.87;46.12
16793;BME280;8513;42.662;23.350;2023-07-30T01:13:35;94747.09;;;22.84;45.06
16793;BME280;8513;42.662;23.350;2023-07-30T01:16:01;94740.94;;;22.72;44.63
16793;BME280;8513;42.662;23.350;2023-07-30T01:18:28;94746.50;;;22.71;44.71
16793;BME280;8513;42.662;23.350;2023-07-30T01:20:57;94745.34;;;22.78;45.20
16793;BME280;8513;42.662;23.350;2023-07-30T01:23:22;94756.31;;;22.65;45.48
16793;BME280;8513;42.662;23.350;2023-07-30T01:25:59;94754.31;;;22.84;45.92
16793;BME280;8513;42.662;23.350;2023-07-30T01:28:27;94747.81;;;22.56;46.80
16793;BME280;8513;42.662;23.350;2023-07-30T01:30:54;94746.16;;;22.55;47.54
16793;BME280;8513;42.662;23.350;2023-07-30T01:33:21;94742.78;;;22.60;47.07
16793;BME280;8513;42.662;23.350;2023-07-30T01:35:48;94744.19;;;22.62;46.82
16793;BME280;8513;42.662;23.350;2023-07-30T01:38:14;94749.66;;;22.56;46.78
16793;BME280;8513;42.662;23.350;2023-07-30T01:40:40;94745.69;;;22.58;47.42
16793;BME280;8513;42.662;23.350;2023-07-30T01:43:07;94757.47;;;22.45;48.07
16793;BME280;8513;42.662;23.350;2023-07-30T01:45:32;94753.75;;;22.05;49.70
16793;BME280;8513;42.662;23.350;2023-07-30T01:47:59;94759.34;;;22.03;49.59
16793;BME280;8513;42.662;23.350;2023-07-30T01:50:25;94752.72;;;22.06;49.93
16793;BME280;8513;42.662;23.350;2023-07-30T01:52:50;94755.97;;;22.08;49.49
16793;BME280;8513;42.662;23.350;2023-07-30T01:55:16;94750.44;;;22.21;49.43
16793;BME280;8513;42.662;23.350;2023-07-30T01:57:41;94756.94;;;22.13;49.76
16793;BME280;8513;42.662;23.350;2023-07-30T02:00:07;94756.88;;;22.01;49.79
16793;BME280;8513;42.662;23.350;2023-07-30T02:02:33;94751.59;;;21.83;50.70
16793;BME280;8513;42.662;23.350;2023-07-30T02:05:00;94756.63;;;21.91;50.29
16793;BME280;8513;42.662;23.350;2023-07-30T02:07:26;94760.50;;;21.95;50.09
16793;BME280;8513;42.662;23.350;2023-07-30T02:09:52;94764.56;;;21.68;50.84
16793;BME280;8513;42.662;23.350;2023-07-30T02:12:18;94760.38;;;21.60;51.08
16793;BME280;8513;42.662;23.350;2023-07-30T02:14:43;94760.28;;;21.67;50.93
16793;BME280;8513;42.662;23.350;2023-07-30T02:17:08;94763.00;;;21.78;50.38
16793;BME280;8513;42.662;23.350;2023-07-30T02:19:34;94765.16;;;21.70;50.88
16793;BME280;8513;42.662;23.350;2023-07-30T02:21:59;94767.44;;;21.54;51.22
16793;BME280;8513;42.662;23.350;2023-07-30T02:24:25;94767.69;;;21.65;50.83
16793;BME280;8513;42.662;23.350;2023-07-30T02:26:50;94772.25;;;21.64;51.00
16793;BME280;8513;42.662;23.350;2023-07-30T02:29:15;94770.50;;;21.40;51.66
16793;BME280;8513;42.662;23.350;2023-07-30T02:31:41;94778.72;;;21.56;51.11
16793;BME280;8513;42.662;23.350;2023-07-30T02:34:06;94768.13;;;21.80;50.51
16793;BME280;8513;42.662;23.350;2023-07-30T02:36:33;94776.81;;;21.75;50.57
16793;BME280;8513;42.662;23.350;2023-07-30T02:38:58;94773.00;;;21.83;50.49
16793;BME280;8513;42.662;23.350;2023-07-30T02:41:23;94768.84;;;21.87;50.20
16793;BME280;8513;42.662;23.350;2023-07-30T02:43:49;94780.81;;;21.85;50.27
16793;BME280;8513;42.662;23.350;2023-07-30T02:46:14;94777.56;;;21.83;50.17
16793;BME280;8513;42.662;23.350;2023-07-30T02:48:40;94781.50;;;21.80;50.03
16793;BME280;8513;42.662;23.350;2023-07-30T02:51:05;94780.44;;;21.81;49.60
16793;BME280;8513;42.662;23.350;2023-07-30T02:53:30;94774.38;;;21.74;49.19
16793;BME280;8513;42.662;23.350;2023-07-30T02:55:56;94776.50;;;21.84;49.20
16793;BME280;8513;42.662;23.350;2023-07-30T02:58:21;94774.06;;;21.82;49.00
16793;BME280;8513;42.662;23.350;2023-07-30T03:00:47;94785.72;;;21.88;48.97
16793;BME280;8513;42.662;23.350;2023-07-30T03:03:12;94779.41;;;21.82;48.62
16793;BME280;8513;42.662;23.350;2023-07-30T03:05:41;94779.94;;;21.72;48.80
16793;BME280;8513;42.662;23.350;2023-07-30T03:08:07;94784.41;;;21.78;48.24
16793;BME280;8513;42.662;23.350;2023-07-30T03:10:32;94781.22;;;21.70;48.25
16793;BME280;8513;42.662;23.350;2023-07-30T03:12:58;94790.66;;;21.72;47.98
16793;BME280;8513;42.662;23.350;2023-07-30T03:15:23;94787.75;;;21.74;47.48
16793;BME280;8513;42.662;23.350;2023-07-30T03:17:49;94791.72;;;21.71;47.37
16793;BME280;8513;42.662;23.350;2023-07-30T03:20:14;94789.84;;;21.72;47.69
16793;BME280;8513;42.662;23.350;2023-07-30T03:22:39;94783.91;;;21.70;47.80
16793;BME280;8513;42.662;23.350;2023-07-30T03:25:05;94784.50;;;21.72;47.51
16793;BME280;8513;42.662;23.350;2023-07-30T03:27:31;94779.00;;;21.67;47.61
16793;BME280;8513;42.662;23.350;2023-07-30T03:29:56;94776.69;;;21.70;47.49
16793;BME280;8513;42.662;23.350;2023-07-30T03:32:22;94778.41;;;21.65;47.95
16793;BME280;8513;42.662;23.350;2023-07-30T03:34:47;94784.00;;;21.63;47.82
16793;BME280;8513;42.662;23.350;2023-07-30T03:37:12;94786.53;;;21.58;48.09
16793;BME280;8513;42.662;23.350;2023-07-30T03:39:38;94773.50;;;21.62;47.58
16793;BME280;8513;42.662;23.350;2023-07-30T03:42:03;94786.44;;;21.65;47.78
16793;BME280;8513;42.662;23.350;2023-07-30T03:44:29;94787.47;;;21.64;48.05
16793;BME280;8513;42.662;23.350;2023-07-30T03:46:54;94771.97;;;21.54;48.00
16793;BME280;8513;42.662;23.350;2023-07-30T03:49:20;94781.78;;;21.60;47.86
16793;BME280;8513;42.662;23.350;2023-07-30T03:51:45;94783.53;;;21.66;47.65
16793;BME280;8513;42.662;23.350;2023-07-30T03:54:10;94784.66;;;21.58;47.56
16793;BME280;8513;42.662;23.350;2023-07-30T03:56:36;94789.09;;;21.65;47.27
16793;BME280;8513;42.662;23.350;2023-07-30T03:59:01;94792.38;;;21.67;47.43
16793;BME280;8513;42.662;23.350;2023-07-30T04:01:27;94792.84;;;21.64;47.76
16793;BME280;8513;42.662;23.350;2023-07-30T04:03:54;94796.09;;;21.66;47.76
16793;BME280;8513;42.662;23.350;2023-07-30T04:06:19;94806.34;;;21.69;47.71
16793;BME280;8513;42.662;23.350;2023-07-30T04:08:45;94801.75;;;21.76;48.71
16793;BME280;8513;42.662;23.350;2023-07-30T04:11:10;94798.94;;;21.52;49.29
16793;BME280;8513;42.662;23.350;2023-07-30T04:13:35;94801.91;;;21.26;50.12
16793;BME280;8513;42.662;23.350;2023-07-30T04:16:01;94792.63;;;21.28;50.05
16793;BME280;8513;42.662;23.350;2023-07-30T04:18:26;94797.84;;;21.42;49.45
16793;BME280;8513;42.662;23.350;2023-07-30T04:20:57;94799.97;;;21.51;49.13
16793;BME280;8513;42.662;23.350;2023-07-30T04:23:22;94799.44;;;21.61;48.62
16793;BME280;8513;42.662;23.350;2023-07-30T04:25:50;94796.31;;;21.64;48.66
16793;BME280;8513;42.662;23.350;2023-07-30T04:28:16;94796.41;;;21.57;48.74
16793;BME280;8513;42.662;23.350;2023-07-30T04:30:42;94803.25;;;21.53;47.85
16793;BME280;8513;42.662;23.350;2023-07-30T04:33:08;94804.94;;;21.66;47.01
16793;BME280;8513;42.662;23.350;2023-07-30T04:35:33;94802.84;;;21.87;46.87
16793;BME280;8513;42.662;23.350;2023-07-30T04:37:59;94803.91;;;21.67;47.17
16793;BME280;8513;42.662;23.350;2023-07-30T04:40:24;94805.38;;;21.82;46.86
16793;BME280;8513;42.662;23.350;2023-07-30T04:42:49;94807.88;;;21.95;46.96
16793;BME280;8513;42.662;23.350;2023-07-30T04:45:15;94807.63;;;21.96;46.41
16793;BME280;8513;42.662;23.350;2023-07-30T04:47:40;94812.31;;;22.01;46.38
16793;BME280;8513;42.662;23.350;2023-07-30T04:50:06;94804.63;;;22.05;46.21
16793;BME280;8513;42.662;23.350;2023-07-30T04:52:31;94805.34;;;22.12;46.29
16793;BME280;8513;42.662;23.350;2023-07-30T04:54:57;94805.22;;;22.07;45.81
16793;BME280;8513;42.662;23.350;2023-07-30T04:57:22;94809.06;;;22.41;44.98
16793;BME280;8513;42.662;23.350;2023-07-30T04:59:47;94807.44;;;22.10;45.65
16793;BME280;8513;42.662;23.350;2023-07-30T05:02:13;94809.50;;;22.08;46.05
16793;BME280;8513;42.662;23.350;2023-07-30T05:04:38;94810.69;;;22.12;46.13
16793;BME280;8513;42.662;23.350;2023-07-30T05:07:04;94812.28;;;22.19;45.89
16793;BME280;8513;42.662;23.350;2023-07-30T05:09:29;94812.91;;;22.15;45.83
16793;BME280;8513;42.662;23.350;2023-07-30T05:11:55;94812.91;;;22.15;45.73
16793;BME280;8513;42.662;23.350;2023-07-30T05:14:21;94798.47;;;22.16;46.23
16793;BME280;8513;42.662;23.350;2023-07-30T05:16:46;94806.25;;;22.24;45.85
16793;BME280;8513;42.662;23.350;2023-07-30T05:19:11;94802.63;;;22.30;45.70
16793;BME280;8513;42.662;23.350;2023-07-30T05:21:37;94809.53;;;22.38;45.47
16793;BME280;8513;42.662;23.350;2023-07-30T05:24:02;94805.44;;;22.47;45.20
16793;BME280;8513;42.662;23.350;2023-07-30T05:26:28;94809.19;;;22.58;45.00
16793;BME280;8513;42.662;23.350;2023-07-30T05:28:53;94807.91;;;22.60;44.99
16793;BME280;8513;42.662;23.350;2023-07-30T05:31:19;94813.03;;;22.50;45.06
16793;BME280;8513;42.662;23.350;2023-07-30T05:33:44;94804.50;;;22.53;45.24
16793;BME280;8513;42.662;23.350;2023-07-30T05:36:10;94797.53;;;22.52;45.50
16793;BME280;8513;42.662;23.350;2023-07-30T05:38:35;94808.50;;;22.62;44.92
16793;BME280;8513;42.662;23.350;2023-07-30T05:41:00;94803.25;;;22.67;44.69
16793;BME280;8513;42.662;23.350;2023-07-30T05:43:26;94813.97;;;22.79;44.61
16793;BME280;8513;42.662;23.350;2023-07-30T05:45:51;94812.94;;;22.92;44.54
16793;BME280;8513;42.662;23.350;2023-07-30T05:48:17;94816.69;;;22.91;44.82
16793;BME280;8513;42.662;23.350;2023-07-30T05:50:42;94811.34;;;23.03;44.75
16793;BME280;8513;42.662;23.350;2023-07-30T05:53:08;94815.53;;;23.10;45.03
16793;BME280;8513;42.662;23.350;2023-07-30T05:55:33;94812.34;;;23.25;45.15
16793;BME280;8513;42.662;23.350;2023-07-30T05:57:58;94813.31;;;23.31;44.79
16793;BME280;8513;42.662;23.350;2023-07-30T06:00:24;94810.84;;;23.29;44.64
16793;BME280;8513;42.662;23.350;2023-07-30T06:02:50;94819.59;;;23.37;44.07
16793;BME280;8513;42.662;23.350;2023-07-30T06:05:16;94819.69;;;23.42;43.90
16793;BME280;8513;42.662;23.350;2023-07-30T06:07:41;94816.19;;;23.29;44.54
16793;BME280;8513;42.662;23.350;2023-07-30T06:10:07;94817.75;;;23.14;44.95
16793;BME280;8513;42.662;23.350;2023-07-30T06:12:33;94820.75;;;23.17;44.87
16793;BME280;8513;42.662;23.350;2023-07-30T06:14:58;94824.13;;;23.24;44.50
16793;BME280;8513;42.662;23.350;2023-07-30T06:17:23;94819.81;;;23.35;44.00
16793;BME280;8513;42.662;23.350;2023-07-30T06:19:49;94820.34;;;23.49;43.99
16793;BME280;8513;42.662;23.350;2023-07-30T06:22:14;94814.06;;;23.55;43.76
16793;BME280;8513;42.662;23.350;2023-07-30T06:24:40;94824.16;;;23.65;43.73
16793;BME280;8513;42.662;23.350;2023-07-30T06:27:05;94823.59;;;23.74;43.58
16793;BME280;8513;42.662;23.350;2023-07-30T06:29:31;94812.72;;;23.69;43.40
16793;BME280;8513;42.662;23.350;2023-07-30T06:31:56;94813.09;;;23.73;43.26
16793;BME280;8513;42.662;23.350;2023-07-30T06:34:22;94811.91;;;23.81;43.12
16793;BME280;8513;42.662;23.350;2023-07-30T06:36:47;94821.16;;;24.02;42.65
16793;BME280;8513;42.662;23.350;2023-07-30T06:39:13;94814.91;;;23.84;43.14
16793;BME280;8513;42.662;23.350;2023-07-30T06:41:38;94807.06;;;23.94;43.23
16793;BME280;8513;42.662;23.350;2023-07-30T06:44:03;94803.34;;;23.84;43.55
16793;BME280;8513;42.662;23.350;2023-07-30T06:46:29;94810.03;;;23.81;42.79
16793;BME280;8513;42.662;23.350;2023-07-30T06:48:54;94805.44;;;23.93;42.21
16793;BME280;8513;42.662;23.350;2023-07-30T06:51:20;94794.72;;;23.82;42.75
16793;BME280;8513;42.662;23.350;2023-07-30T06:53:46;94797.97;;;23.95;43.41
16793;BME280;8513;42.662;23.350;2023-07-30T06:56:11;94793.00;;;24.04;42.71
16793;BME280;8513;42.662;23.350;2023-07-30T06:58:36;94789.84;;;24.07;42.31
16793;BME280;8513;42.662;23.350;2023-07-30T07:01:02;94783.97;;;24.10;41.56
16793;BME280;8513;42.662;23.350;2023-07-30T07:03:27;94786.56;;;24.05;41.41
16793;BME280;8513;42.662;23.350;2023-07-30T07:05:54;94784.75;;;23.94;41.68
16793;BME280;8513;42.662;23.350;2023-07-30T07:08:20;94776.81;;;24.16;41.60
16793;BME280;8513;42.662;23.350;2023-07-30T07:10:45;94778.38;;;24.29;41.42
16793;BME280;8513;42.662;23.350;2023-07-30T07:13:11;94776.94;;;24.38;41.54
16793;BME280;8513;42.662;23.350;2023-07-30T07:15:40;94777.09;;;24.48;41.25
16793;BME280;8513;42.662;23.350;2023-07-30T07:18:06;94771.31;;;24.56;40.25
16793;BME280;8513;42.662;23.350;2023-07-30T07:20:32;94771.00;;;24.53;39.90
16793;BME280;8513;42.662;23.350;2023-07-30T07:22:57;94768.00;;;24.49;40.60
16793;BME280;8513;42.662;23.350;2023-07-30T07:25:22;94759.44;;;24.69;39.98
16793;BME280;8513;42.662;23.350;2023-07-30T07:27:48;94766.75;;;24.40;40.74
16793;BME280;8513;42.662;23.350;2023-07-30T07:30:13;94756.69;;;24.47;40.18
16793;BME280;8513;42.662;23.350;2023-07-30T07:32:39;94755.03;;;24.63;39.90
16793;BME280;8513;42.662;23.350;2023-07-30T07:35:05;94743.50;;;24.62;40.67
16793;BME280;8513;42.662;23.350;2023-07-30T07:37:31;94752.19;;;24.70;40.30
16793;BME280;8513;42.662;23.350;2023-07-30T07:39:57;94741.84;;;24.78;40.66
16793;BME280;8513;42.662;23.350;2023-07-30T07:42:22;94746.53;;;24.88;40.33
16793;BME280;8513;42.662;23.350;2023-07-30T07:44:48;94743.19;;;24.98;40.67
16793;BME280;8513;42.662;23.350;2023-07-30T07:47:13;94748.34;;;25.04;40.10
16793;BME280;8513;42.662;23.350;2023-07-30T07:49:39;94747.06;;;25.07;40.10
16793;BME280;8513;42.662;23.350;2023-07-30T07:52:04;94740.69;;;25.13;40.47
16793;BME280;8513;42.662;23.350;2023-07-30T07:54:30;94741.75;;;25.29;39.64
16793;BME280;8513;42.662;23.350;2023-07-30T07:56:55;94743.03;;;25.26;39.05
16793;BME280;8513;42.662;23.350;2023-07-30T07:59:21;94732.53;;;25.25;40.05
16793;BME280;8513;42.662;23.350;2023-07-30T08:01:46;94735.97;;;25.42;39.34
16793;BME280;8513;42.662;23.350;2023-07-30T08:04:12;94730.66;;;25.47;37.84
16793;BME280;8513;42.662;23.350;2023-07-30T08:06:37;94736.06;;;25.52;37.80
16793;BME280;8513;42.662;23.350;2023-07-30T08:09:02;94725.22;;;25.42;38.59
16793;BME280;8513;42.662;23.350;2023-07-30T08:11:28;94718.00;;;25.48;38.18
16793;BME280;8513;42.662;23.350;2023-07-30T08:13:53;94722.53;;;25.69;38.68
16793;BME280;8513;42.662;23.350;2023-07-30T08:16:19;94720.34;;;25.66;37.73
16793;BME280;8513;42.662;23.350;2023-07-30T08:18:44;94725.41;;;25.63;38.64
16793;BME280;8513;42.662;23.350;2023-07-30T08:21:10;94725.53;;;25.73;37.53
16793;BME280;8513;42.662;23.350;2023-07-30T08:23:35;94736.16;;;25.85;37.02
16793;BME280;8513;42.662;23.350;2023-07-30T08:26:00;94713.56;;;25.86;37.07
16793;BME280;8513;42.662;23.350;2023-07-30T08:28:26;94722.31;;;25.76;37.11
16793;BME280;8513;42.662;23.350;2023-07-30T08:30:51;94719.59;;;25.98;37.89
16793;BME280;8513;42.662;23.350;2023-07-30T08:33:17;94712.59;;;25.97;36.32
16793;BME280;8513;42.662;23.350;2023-07-30T08:35:42;94715.00;;;25.93;36.28
16793;BME280;8513;42.662;23.350;2023-07-30T08:38:08;94711.19;;;25.89;37.23
16793;BME280;8513;42.662;23.350;2023-07-30T08:40:33;94706.44;;;26.02;38.61
16793;BME280;8513;42.662;23.350;2023-07-30T08:42:59;94713.84;;;26.16;37.79
16793;BME280;8513;42.662;23.350;2023-07-30T08:45:25;94707.72;;;26.26;38.42
16793;BME280;8513;42.662;23.350;2023-07-30T08:47:50;94702.44;;;26.36;38.08
16793;BME280;8513;42.662;23.350;2023-07-30T08:50:15;94693.25;;;26.37;38.21
16793;BME280;8513;42.662;23.350;2023-07-30T08:52:41;94696.28;;;26.41;37.09
16793;BME280;8513;42.662;23.350;2023-07-30T08:55:08;94699.53;;;26.48;37.65
16793;BME280;8513;42.662;23.350;2023-07-30T08:57:37;94693.97;;;26.55;35.84
16793;BME280;8513;42.662;23.350;2023-07-30T09:00:05;94690.25;;;26.66;35.50
16793;BME280;8513;42.662;23.350;2023-07-30T09:02:37;94689.88;;;26.95;34.37
16793;BME280;8513;42.662;23.350;2023-07-30T09:05:04;94685.47;;;26.78;33.87
16793;BME280;8513;42.662;23.350;2023-07-30T09:07:30;94688.69;;;26.75;35.05
16793;BME280;8513;42.662;23.350;2023-07-30T09:09:55;94680.06;;;26.73;34.65
16793;BME280;8513;42.662;23.350;2023-07-30T09:12:26;94692.50;;;26.79;35.95
16793;BME280;8513;42.662;23.350;2023-07-30T09:14:51;94684.13;;;26.76;35.09
16793;BME280;8513;42.662;23.350;2023-07-30T09:17:18;94677.19;;;26.95;34.56
16793;BME280;8513;42.662;23.350;2023-07-30T09:19:43;94675.63;;;27.04;33.83
16793;BME280;8513;42.662;23.350;2023-07-30T09:22:09;94682.91;;;27.04;34.09
16793;BME280;8513;42.662;23.350;2023-07-30T09:24:35;94672.88;;;26.89;30.53
16793;BME280;8513;42.662;23.350;2023-07-30T09:27:02;94679.25;;;26.78;32.17
16793;BME280;8513;42.662;23.350;2023-07-30T09:29:28;94675.81;;;26.88;32.27
16793;BME280;8513;42.662;23.350;2023-07-30T09:31:54;94672.09;;;27.04;32.47
16793;BME280;8513;42.662;23.350;2023-07-30T09:34:21;94669.00;;;27.33;31.64
16793;BME280;8513;42.662;23.350;2023-07-30T09:36:50;94673.88;;;27.31;29.41
16793;BME280;8513;42.662;23.350;2023-07-30T09:39:26;94668.91;;;27.80;29.32
16793;BME280;8513;42.662;23.350;2023-07-30T09:41:59;94659.38;;;27.62;28.70
16793;BME280;8513;42.662;23.350;2023-07-30T09:44:25;94663.44;;;27.65;29.10
16793;BME280;8513;42.662;23.350;2023-07-30T09:46:51;94647.50;;;27.68;29.54
16793;BME280;8513;42.662;23.350;2023-07-30T09:49:17;94655.06;;;27.77;30.56
16793;BME280;8513;42.662;23.350;2023-07-30T09:51:43;94650.81;;;27.96;30.26
16793;BME280;8513;42.662;23.350;2023-07-30T09:54:11;94646.22;;;28.07;30.64
16793;BME280;8513;42.662;23.350;2023-07-30T09:56:38;94638.06;;;28.22;29.49
16793;BME280;8513;42.662;23.350;2023-07-30T09:59:04;94634.31;;;28.28;30.10
16793;BME280;8513;42.662;23.350;2023-07-30T10:01:31;94638.63;;;28.40;29.31
16793;BME280;8513;42.662;23.350;2023-07-30T10:03:58;94643.75;;;28.62;29.91
16793;BME280;8513;42.662;23.350;2023-07-30T10:06:29;94632.09;;;28.71;29.61
16793;BME280;8513;42.662;23.350;2023-07-30T10:08:58;94633.38;;;28.84;29.47
16793;BME280;8513;42.662;23.350;2023-07-30T10:11:24;94638.50;;;28.96;27.25
16793;BME280;8513;42.662;23.350;2023-07-30T10:13:51;94626.38;;;28.78;28.80
16793;BME280;8513;42.662;23.350;2023-07-30T10:16:17;94626.59;;;28.92;28.54
16793;BME280;8513;42.662;23.350;2023-07-30T10:18:43;94621.44;;;29.00;27.81
16793;BME280;8513;42.662;23.350;2023-07-30T10:21:10;94618.69;;;29.11;29.15
16793;BME280;8513;42.662;23.350;2023-07-30T10:23:45;94614.03;;;29.21;27.72
16793;BME280;8513;42.662;23.350;2023-07-30T10:26:11;94613.19;;;29.31;28.39
16793;BME280;8513;42.662;23.350;2023-07-30T10:28:37;94608.31;;;29.33;27.95
16793;BME280;8513;42.662;23.350;2023-07-30T10:31:07;94600.63;;;29.45;27.98
16793;BME280;8513;42.662;23.350;2023-07-30T10:33:52;94602.13;;;29.72;26.58
16793;BME280;8513;42.662;23.350;2023-07-30T10:38:56;94599.19;;;30.03;27.48
16793;BME280;8513;42.662;23.350;2023-07-30T10:41:22;94597.63;;;30.26;26.91
16793;BME280;8513;42.662;23.350;2023-07-30T10:43:49;94595.63;;;30.37;27.39
16793;BME280;8513;42.662;23.350;2023-07-30T10:46:17;94589.31;;;30.12;25.21
16793;BME280;8513;42.662;23.350;2023-07-30T10:48:44;94586.34;;;30.14;25.49
16793;BME280;8513;42.662;23.350;2023-07-30T10:51:13;94578.44;;;30.17;26.56
16793;BME280;8513;42.662;23.350;2023-07-30T10:53:42;94574.44;;;30.09;25.41
16793;BME280;8513;42.662;23.350;2023-07-30T10:56:09;94575.31;;;30.05;25.87
16793;BME280;8513;42.662;23.350;2023-07-30T10:58:36;94563.75;;;29.94;25.46
16793;BME280;8513;42.662;23.350;2023-07-30T11:01:03;94567.81;;;30.26;25.96
16793;BME280;8513;42.662;23.350;2023-07-30T11:03:29;94562.75;;;30.43;25.65
16793;BME280;8513;42.662;23.350;2023-07-30T11:05:56;94560.63;;;30.64;25.71
16793;BME280;8513;42.662;23.350;2023-07-30T11:08:37;94562.69;;;30.72;26.28
16793;BME280;8513;42.662;23.350;2023-07-30T11:11:05;94549.84;;;30.59;25.76
16793;BME280;8513;42.662;23.350;2023-07-30T11:13:38;94559.53;;;30.65;25.19
16793;BME280;8513;42.662;23.350;2023-07-30T11:16:05;94548.53;;;30.75;26.37
16793;BME280;8513;42.662;23.350;2023-07-30T11:18:31;94552.06;;;31.00;25.22
16793;BME280;8513;42.662;23.350;2023-07-30T11:21:03;94540.34;;;31.05;25.45
16793;BME280;8513;42.662;23.350;2023-07-30T11:23:28;94528.03;;;31.12;25.06
16793;BME280;8513;42.662;23.350;2023-07-30T11:25:54;94532.56;;;31.36;25.36
16793;BME280;8513;42.662;23.350;2023-07-30T11:33:44;94522.84;;;31.86;24.53
16793;BME280;8513;42.662;23.350;2023-07-30T11:36:15;94522.72;;;31.92;23.29
16793;BME280;8513;42.662;23.350;2023-07-30T11:38:42;94520.50;;;31.80;23.40
16793;BME280;8513;42.662;23.350;2023-07-30T11:41:09;94526.09;;;31.70;24.43
16793;BME280;8513;42.662;23.350;2023-07-30T11:43:40;94517.25;;;31.78;23.55
16793;BME280;8513;42.662;23.350;2023-07-30T11:46:14;94504.84;;;31.72;24.52
16793;BME280;8513;42.662;23.350;2023-07-30T11:48:45;94494.91;;;31.81;24.21
16793;BME280;8513;42.662;23.350;2023-07-30T11:54:01;94488.16;;;31.97;24.17
16793;BME280;8513;42.662;23.350;2023-07-30T11:56:31;94493.28;;;31.99;24.37
16793;BME280;8513;42.662;23.350;2023-07-30T11:59:07;94486.84;;;31.95;23.20
16793;BME280;8513;42.662;23.350;2023-07-30T12:01:35;94482.22;;;32.09;22.99
16793;BME280;8513;42.662;23.350;2023-07-30T12:04:04;94476.69;;;32.42;22.80
16793;BME280;8513;42.662;23.350;2023-07-30T12:06:40;94481.25;;;32.60;22.63
16793;BME280;8513;42.662;23.350;2023-07-30T12:09:16;94477.19;;;32.85;22.69
16793;BME280;8513;42.662;23.350;2023-07-30T12:11:56;94475.84;;;33.10;22.51
16793;BME280;8513;42.662;23.350;2023-07-30T12:14:25;94473.25;;;32.91;22.80
16793;BME280;8513;42.662;23.350;2023-07-30T12:16:55;94470.88;;;32.99;21.95
16793;BME280;8513;42.662;23.350;2023-07-30T12:19:20;94458.41;;;32.98;22.11
16793;BME280;8513;42.662;23.350;2023-07-30T12:21:46;94457.53;;;32.88;21.55
16793;BME280;8513;42.662;23.350;2023-07-30T12:24:11;94453.03;;;32.70;22.20
16793;BME280;8513;42.662;23.350;2023-07-30T12:26:37;94442.63;;;32.44;22.32
16793;BME280;8513;42.662;23.350;2023-07-30T12:29:02;94429.25;;;32.62;22.75
16793;BME280;8513;42.662;23.350;2023-07-30T12:31:27;94438.81;;;32.95;22.66
16793;BME280;8513;42.662;23.350;2023-07-30T12:33:53;94439.41;;;33.20;22.40
16793;BME280;8513;42.662;23.350;2023-07-30T12:36:18;94436.38;;;33.44;21.29
16793;BME280;8513;42.662;23.350;2023-07-30T12:38:44;94428.66;;;33.46;22.14
16793;BME280;8513;42.662;23.350;2023-07-30T12:41:09;94431.28;;;33.74;21.38
16793;BME280;8513;42.662;23.350;2023-07-30T12:43:34;94427.72;;;33.96;20.97
16793;BME280;8513;42.662;23.350;2023-07-30T12:46:00;94428.97;;;33.90;20.70
16793;BME280;8513;42.662;23.350;2023-07-30T12:48:25;94419.81;;;33.86;22.12
16793;BME280;8513;42.662;23.350;2023-07-30T12:50:51;94411.72;;;34.03;20.61
16793;BME280;8513;42.662;23.350;2023-07-30T12:53:16;94419.69;;;34.31;20.14
16793;BME280;8513;42.662;23.350;2023-07-30T12:55:41;94412.75;;;34.73;19.54
16793;BME280;8513;42.662;23.350;2023-07-30T12:58:07;94408.44;;;34.98;19.88
16793;BME280;8513;42.662;23.350;2023-07-30T13:00:34;94413.13;;;35.32;19.74
16793;BME280;8513;42.662;23.350;2023-07-30T13:02:59;94406.56;;;35.07;19.10
16793;BME280;8513;42.662;23.350;2023-07-30T13:05:25;94398.31;;;34.73;20.01